sensor_id;sensor_type;location;lat;lon;timestamp;P1;durP1;ratioP1;P2;durP2;ratioP2
61741;SDS011;47650;49.848;9.620;2023-07-20T00:01:45;63.10;;;35.38;;
61741;SDS011;47650;49.848;9.620;2023-07-20T00:04:12;36.13;;;27.98;;
61741;SDS011;47650;49.848;9.620;2023-07-20T00:06:40;47.40;;;36.80;;
61741;SDS011;47650;49.848;9.620;2023-07-20T00:09:06;63.42;;;41.53;;
61741;SDS011;47650;49.848;9.620;2023-07-20T00:11:35;38.05;;;27.52;;
61741;SDS011;47650;49.848;9.620;2023-07-20T00:14:02;49.17;;;34.78;;
61741;SDS011;47650;49.848;9.620;2023-07-20T00:16:28;52.35;;;38.63;;
61741;SDS011;47650;49.848;9.620;2023-07-20T00:18:53;56.45;;;38.53;;
61741;SDS011;47650;49.848;9.620;2023-07-20T00:21:18;61.38;;;42.03;;
61741;SDS011;47650;49.848;9.620;2023-07-20T00:23:44;35.28;;;24.08;;
61741;SDS011;47650;49.848;9.620;2023-07-20T00:26:10;36.63;;;26.23;;
61741;SDS011;47650;49.848;9.620;2023-07-20T00:28:35;47.22;;;31.40;;
61741;SDS011;47650;49.848;9.620;2023-07-20T00:31:00;68.05;;;42.83;;
61741;SDS011;47650;49.848;9.620;2023-07-20T00:33:26;42.67;;;30.85;;
61741;SDS011;47650;49.848;9.620;2023-07-20T00:35:51;33.78;;;24.30;;
61741;SDS011;47650;49.848;9.620;2023-07-20T00:38:19;55.15;;;36.85;;
61741;SDS011;47650;49.848;9.620;2023-07-20T00:40:45;73.75;;;44.92;;
61741;SDS011;47650;49.848;9.620;2023-07-20T00:43:11;41.70;;;31.77;;
61741;SDS011;47650;49.848;9.620;2023-07-20T00:45:38;35.60;;;27.23;;
61741;SDS011;47650;49.848;9.620;2023-07-20T00:48:05;41.50;;;26.77;;
61741;SDS011;47650;49.848;9.620;2023-07-20T00:50:35;30.33;;;24.33;;
61741;SDS011;47650;49.848;9.620;2023-07-20T00:53:01;54.22;;;34.97;;
61741;SDS011;47650;49.848;9.620;2023-07-20T00:55:30;32.38;;;27.88;;
61741;SDS011;47650;49.848;9.620;2023-07-20T00:57:57;49.92;;;32.55;;
61741;SDS011;47650;49.848;9.620;2023-07-20T01:00:23;35.90;;;27.02;;
61741;SDS011;47650;49.848;9.620;2023-07-20T01:02:48;54.75;;;35.75;;
61741;SDS011;47650;49.848;9.620;2023-07-20T01:05:13;35.25;;;23.70;;
61741;SDS011;47650;49.848;9.620;2023-07-20T01:07:55;29.90;;;22.08;;
61741;SDS011;47650;49.848;9.620;2023-07-20T01:10:57;40.40;;;32.47;;
61741;SDS011;47650;49.848;9.620;2023-07-20T01:13:27;57.15;;;38.42;;
61741;SDS011;47650;49.848;9.620;2023-07-20T01:15:57;51.58;;;35.10;;
61741;SDS011;47650;49.848;9.620;2023-07-20T01:18:26;35.30;;;26.98;;
61741;SDS011;47650;49.848;9.620;2023-07-20T01:20:54;45.60;;;30.58;;
61741;SDS011;47650;49.848;9.620;2023-07-20T01:23:32;43.33;;;32.60;;
61741;SDS011;47650;49.848;9.620;2023-07-20T01:31:54;42.15;;;31.00;;
61741;SDS011;47650;49.848;9.620;2023-07-20T01:34:22;32.03;;;21.02;;
61741;SDS011;47650;49.848;9.620;2023-07-20T01:36:50;47.25;;;29.25;;
61741;SDS011;47650;49.848;9.620;2023-07-20T01:39:19;37.35;;;28.88;;
61741;SDS011;47650;49.848;9.620;2023-07-20T01:41:46;48.42;;;32.83;;
61741;SDS011;47650;49.848;9.620;2023-07-20T01:44:12;33.13;;;26.88;;
61741;SDS011;47650;49.848;9.620;2023-07-20T01:46:37;43.38;;;30.92;;
61741;SDS011;47650;49.848;9.620;2023-07-20T01:49:04;50.50;;;34.20;;
61741;SDS011;47650;49.848;9.620;2023-07-20T01:51:30;57.55;;;32.47;;
61741;SDS011;47650;49.848;9.620;2023-07-20T01:53:56;39.95;;;31.48;;
61741;SDS011;47650;49.848;9.620;2023-07-20T01:56:21;31.40;;;23.90;;
61741;SDS011;47650;49.848;9.620;2023-07-20T01:58:46;34.72;;;24.02;;
61741;SDS011;47650;49.848;9.620;2023-07-20T02:01:12;48.15;;;34.60;;
61741;SDS011;47650;49.848;9.620;2023-07-20T02:03:43;43.47;;;27.27;;
61741;SDS011;47650;49.848;9.620;2023-07-20T02:06:08;53.42;;;32.08;;
61741;SDS011;47650;49.848;9.620;2023-07-20T02:08:35;35.75;;;23.02;;
61741;SDS011;47650;49.848;9.620;2023-07-20T02:11:00;50.63;;;35.63;;
61741;SDS011;47650;49.848;9.620;2023-07-20T02:13:26;46.20;;;29.08;;
61741;SDS011;47650;49.848;9.620;2023-07-20T02:15:53;41.05;;;29.45;;
61741;SDS011;47650;49.848;9.620;2023-07-20T02:18:18;22.00;;;16.92;;
61741;SDS011;47650;49.848;9.620;2023-07-20T02:20:44;45.13;;;29.60;;
61741;SDS011;47650;49.848;9.620;2023-07-20T02:23:10;36.85;;;21.85;;
61741;SDS011;47650;49.848;9.620;2023-07-20T02:25:37;43.53;;;30.67;;
61741;SDS011;47650;49.848;9.620;2023-07-20T02:28:03;32.33;;;23.02;;
61741;SDS011;47650;49.848;9.620;2023-07-20T02:30:30;40.95;;;27.05;;
61741;SDS011;47650;49.848;9.620;2023-07-20T02:32:55;34.42;;;24.70;;
61741;SDS011;47650;49.848;9.620;2023-07-20T02:35:23;32.40;;;20.27;;
61741;SDS011;47650;49.848;9.620;2023-07-20T02:37:51;30.48;;;23.42;;
61741;SDS011;47650;49.848;9.620;2023-07-20T02:40:16;28.08;;;21.65;;
61741;SDS011;47650;49.848;9.620;2023-07-20T02:42:41;27.98;;;22.15;;
61741;SDS011;47650;49.848;9.620;2023-07-20T02:45:09;50.65;;;35.03;;
61741;SDS011;47650;49.848;9.620;2023-07-20T02:47:35;44.08;;;30.75;;
61741;SDS011;47650;49.848;9.620;2023-07-20T02:50:02;33.95;;;25.33;;
61741;SDS011;47650;49.848;9.620;2023-07-20T02:52:28;45.05;;;31.52;;
61741;SDS011;47650;49.848;9.620;2023-07-20T02:54:54;33.75;;;23.45;;
61741;SDS011;47650;49.848;9.620;2023-07-20T02:57:20;40.08;;;26.33;;
61741;SDS011;47650;49.848;9.620;2023-07-20T02:59:46;28.23;;;22.15;;
61741;SDS011;47650;49.848;9.620;2023-07-20T03:02:12;49.25;;;30.05;;
61741;SDS011;47650;49.848;9.620;2023-07-20T03:04:37;40.28;;;24.48;;
61741;SDS011;47650;49.848;9.620;2023-07-20T03:07:04;47.40;;;30.77;;
61741;SDS011;47650;49.848;9.620;2023-07-20T03:09:31;43.35;;;27.48;;
61741;SDS011;47650;49.848;9.620;2023-07-20T03:11:56;40.35;;;23.88;;
61741;SDS011;47650;49.848;9.620;2023-07-20T03:14:21;41.38;;;26.58;;
61741;SDS011;47650;49.848;9.620;2023-07-20T03:16:49;36.97;;;22.38;;
61741;SDS011;47650;49.848;9.620;2023-07-20T03:19:14;27.33;;;21.05;;
61741;SDS011;47650;49.848;9.620;2023-07-20T03:21:40;40.20;;;25.88;;
61741;SDS011;47650;49.848;9.620;2023-07-20T03:24:07;32.22;;;20.55;;
61741;SDS011;47650;49.848;9.620;2023-07-20T03:26:33;30.13;;;20.90;;
61741;SDS011;47650;49.848;9.620;2023-07-20T03:28:59;25.00;;;17.30;;
61741;SDS011;47650;49.848;9.620;2023-07-20T03:31:25;23.90;;;17.77;;
61741;SDS011;47650;49.848;9.620;2023-07-20T03:33:52;42.33;;;25.25;;
61741;SDS011;47650;49.848;9.620;2023-07-20T03:36:22;20.38;;;18.15;;
61741;SDS011;47650;49.848;9.620;2023-07-20T03:38:48;23.60;;;17.15;;
61741;SDS011;47650;49.848;9.620;2023-07-20T03:41:15;36.75;;;21.17;;
61741;SDS011;47650;49.848;9.620;2023-07-20T03:43:44;28.30;;;17.98;;
61741;SDS011;47650;49.848;9.620;2023-07-20T03:46:12;33.20;;;20.77;;
61741;SDS011;47650;49.848;9.620;2023-07-20T03:48:38;35.53;;;21.30;;
61741;SDS011;47650;49.848;9.620;2023-07-20T03:51:03;27.92;;;19.33;;
61741;SDS011;47650;49.848;9.620;2023-07-20T03:53:29;27.52;;;18.17;;
61741;SDS011;47650;49.848;9.620;2023-07-20T03:55:55;26.10;;;14.57;;
61741;SDS011;47650;49.848;9.620;2023-07-20T03:58:21;27.40;;;19.63;;
61741;SDS011;47650;49.848;9.620;2023-07-20T04:00:51;39.63;;;23.15;;
61741;SDS011;47650;49.848;9.620;2023-07-20T04:03:18;25.20;;;14.02;;
61741;SDS011;47650;49.848;9.620;2023-07-20T04:05:44;24.48;;;16.00;;
61741;SDS011;47650;49.848;9.620;2023-07-20T04:08:10;27.00;;;18.20;;
61741;SDS011;47650;49.848;9.620;2023-07-20T04:10:37;26.83;;;17.33;;
61741;SDS011;47650;49.848;9.620;2023-07-20T04:13:04;25.73;;;16.40;;
61741;SDS011;47650;49.848;9.620;2023-07-20T04:15:30;26.67;;;20.75;;
61741;SDS011;47650;49.848;9.620;2023-07-20T04:17:56;28.98;;;20.92;;
61741;SDS011;47650;49.848;9.620;2023-07-20T04:20:24;29.90;;;17.15;;
61741;SDS011;47650;49.848;9.620;2023-07-20T04:22:50;35.00;;;18.33;;
61741;SDS011;47650;49.848;9.620;2023-07-20T04:25:16;24.13;;;15.38;;
61741;SDS011;47650;49.848;9.620;2023-07-20T04:27:42;38.03;;;22.95;;
61741;SDS011;47650;49.848;9.620;2023-07-20T04:30:08;32.28;;;21.85;;
61741;SDS011;47650;49.848;9.620;2023-07-20T04:32:36;42.10;;;26.17;;
61741;SDS011;47650;49.848;9.620;2023-07-20T04:35:05;34.70;;;23.15;;
61741;SDS011;47650;49.848;9.620;2023-07-20T04:37:32;36.85;;;22.80;;
61741;SDS011;47650;49.848;9.620;2023-07-20T04:39:57;21.95;;;13.23;;
61741;SDS011;47650;49.848;9.620;2023-07-20T04:42:22;21.13;;;15.85;;
61741;SDS011;47650;49.848;9.620;2023-07-20T04:44:49;33.67;;;20.73;;
61741;SDS011;47650;49.848;9.620;2023-07-20T04:47:14;30.25;;;16.92;;
61741;SDS011;47650;49.848;9.620;2023-07-20T04:49:39;27.27;;;15.15;;
61741;SDS011;47650;49.848;9.620;2023-07-20T04:52:05;23.00;;;14.95;;
61741;SDS011;47650;49.848;9.620;2023-07-20T04:54:31;23.83;;;14.40;;
61741;SDS011;47650;49.848;9.620;2023-07-20T04:56:59;24.25;;;14.52;;
61741;SDS011;47650;49.848;9.620;2023-07-20T04:59:24;18.13;;;12.65;;
61741;SDS011;47650;49.848;9.620;2023-07-20T05:01:49;18.58;;;12.38;;
61741;SDS011;47650;49.848;9.620;2023-07-20T05:04:15;17.10;;;11.52;;
61741;SDS011;47650;49.848;9.620;2023-07-20T05:06:40;22.52;;;14.50;;
61741;SDS011;47650;49.848;9.620;2023-07-20T05:09:05;22.70;;;14.25;;
61741;SDS011;47650;49.848;9.620;2023-07-20T05:11:31;18.25;;;11.32;;
61741;SDS011;47650;49.848;9.620;2023-07-20T05:13:57;16.25;;;10.23;;
61741;SDS011;47650;49.848;9.620;2023-07-20T05:16:22;24.85;;;15.70;;
61741;SDS011;47650;49.848;9.620;2023-07-20T05:18:48;31.23;;;14.98;;
61741;SDS011;47650;49.848;9.620;2023-07-20T05:21:14;29.10;;;16.88;;
61741;SDS011;47650;49.848;9.620;2023-07-20T05:23:39;25.17;;;15.60;;
61741;SDS011;47650;49.848;9.620;2023-07-20T05:26:04;19.60;;;13.45;;
61741;SDS011;47650;49.848;9.620;2023-07-20T05:28:30;19.35;;;12.90;;
61741;SDS011;47650;49.848;9.620;2023-07-20T05:30:57;24.10;;;14.02;;
61741;SDS011;47650;49.848;9.620;2023-07-20T05:33:24;14.38;;;8.70;;
61741;SDS011;47650;49.848;9.620;2023-07-20T05:35:49;15.98;;;9.05;;
61741;SDS011;47650;49.848;9.620;2023-07-20T05:38:15;14.70;;;6.95;;
61741;SDS011;47650;49.848;9.620;2023-07-20T05:40:41;12.38;;;7.55;;
61741;SDS011;47650;49.848;9.620;2023-07-20T05:43:07;14.55;;;8.38;;
61741;SDS011;47650;49.848;9.620;2023-07-20T05:45:33;14.60;;;8.93;;
61741;SDS011;47650;49.848;9.620;2023-07-20T05:47:59;15.43;;;7.20;;
61741;SDS011;47650;49.848;9.620;2023-07-20T05:50:25;13.10;;;6.38;;
61741;SDS011;47650;49.848;9.620;2023-07-20T05:52:54;11.38;;;5.68;;
61741;SDS011;47650;49.848;9.620;2023-07-20T05:55:21;13.23;;;7.32;;
61741;SDS011;47650;49.848;9.620;2023-07-20T05:57:47;11.30;;;6.38;;
61741;SDS011;47650;49.848;9.620;2023-07-20T06:00:13;10.90;;;6.05;;
61741;SDS011;47650;49.848;9.620;2023-07-20T06:02:39;11.02;;;6.60;;
61741;SDS011;47650;49.848;9.620;2023-07-20T06:05:07;16.88;;;8.00;;
61741;SDS011;47650;49.848;9.620;2023-07-20T06:07:38;14.68;;;6.18;;
61741;SDS011;47650;49.848;9.620;2023-07-20T06:10:05;13.52;;;6.82;;
61741;SDS011;47650;49.848;9.620;2023-07-20T06:12:31;11.82;;;7.20;;
61741;SDS011;47650;49.848;9.620;2023-07-20T06:15:02;12.95;;;8.27;;
61741;SDS011;47650;49.848;9.620;2023-07-20T06:17:30;11.35;;;4.97;;
61741;SDS011;47650;49.848;9.620;2023-07-20T06:19:55;14.13;;;6.72;;
61741;SDS011;47650;49.848;9.620;2023-07-20T06:22:21;10.10;;;4.22;;
61741;SDS011;47650;49.848;9.620;2023-07-20T06:24:47;7.65;;;3.85;;
61741;SDS011;47650;49.848;9.620;2023-07-20T06:27:13;8.23;;;4.75;;
61741;SDS011;47650;49.848;9.620;2023-07-20T06:29:39;4.95;;;3.42;;
61741;SDS011;47650;49.848;9.620;2023-07-20T06:32:05;6.85;;;3.35;;
61741;SDS011;47650;49.848;9.620;2023-07-20T06:34:30;7.93;;;4.07;;
61741;SDS011;47650;49.848;9.620;2023-07-20T06:36:56;8.70;;;5.50;;
61741;SDS011;47650;49.848;9.620;2023-07-20T06:39:21;7.47;;;3.75;;
61741;SDS011;47650;49.848;9.620;2023-07-20T06:41:48;7.50;;;3.40;;
61741;SDS011;47650;49.848;9.620;2023-07-20T06:44:14;6.78;;;3.28;;
61741;SDS011;47650;49.848;9.620;2023-07-20T06:46:40;7.60;;;3.65;;
61741;SDS011;47650;49.848;9.620;2023-07-20T06:49:06;7.95;;;3.30;;
61741;SDS011;47650;49.848;9.620;2023-07-20T06:51:32;4.97;;;3.05;;
61741;SDS011;47650;49.848;9.620;2023-07-20T06:53:59;9.40;;;3.20;;
61741;SDS011;47650;49.848;9.620;2023-07-20T06:56:24;7.53;;;3.60;;
61741;SDS011;47650;49.848;9.620;2023-07-20T06:58:49;7.38;;;3.08;;
61741;SDS011;47650;49.848;9.620;2023-07-20T07:01:16;7.50;;;3.15;;
61741;SDS011;47650;49.848;9.620;2023-07-20T07:03:42;5.95;;;2.78;;
61741;SDS011;47650;49.848;9.620;2023-07-20T07:06:08;4.07;;;3.05;;
61741;SDS011;47650;49.848;9.620;2023-07-20T07:08:36;6.47;;;2.80;;
61741;SDS011;47650;49.848;9.620;2023-07-20T07:11:03;5.72;;;2.92;;
61741;SDS011;47650;49.848;9.620;2023-07-20T07:13:30;6.68;;;2.67;;
61741;SDS011;47650;49.848;9.620;2023-07-20T07:15:56;4.68;;;2.05;;
61741;SDS011;47650;49.848;9.620;2023-07-20T07:18:21;5.25;;;2.65;;
61741;SDS011;47650;49.848;9.620;2023-07-20T07:20:52;5.65;;;2.50;;
61741;SDS011;47650;49.848;9.620;2023-07-20T07:23:18;5.28;;;2.67;;
61741;SDS011;47650;49.848;9.620;2023-07-20T07:25:44;6.65;;;2.53;;
61741;SDS011;47650;49.848;9.620;2023-07-20T07:28:09;4.45;;;2.60;;
61741;SDS011;47650;49.848;9.620;2023-07-20T07:30:35;4.97;;;2.70;;
61741;SDS011;47650;49.848;9.620;2023-07-20T07:33:05;5.13;;;2.40;;
61741;SDS011;47650;49.848;9.620;2023-07-20T07:35:30;5.40;;;2.90;;
61741;SDS011;47650;49.848;9.620;2023-07-20T07:37:56;5.13;;;1.92;;
61741;SDS011;47650;49.848;9.620;2023-07-20T07:40:21;5.07;;;2.45;;
61741;SDS011;47650;49.848;9.620;2023-07-20T07:42:47;6.60;;;2.45;;
61741;SDS011;47650;49.848;9.620;2023-07-20T07:45:13;7.93;;;2.88;;
61741;SDS011;47650;49.848;9.620;2023-07-20T07:47:39;7.78;;;3.47;;
61741;SDS011;47650;49.848;9.620;2023-07-20T07:50:05;3.40;;;2.60;;
61741;SDS011;47650;49.848;9.620;2023-07-20T07:52:31;5.90;;;2.58;;
61741;SDS011;47650;49.848;9.620;2023-07-20T07:54:57;4.82;;;2.50;;
61741;SDS011;47650;49.848;9.620;2023-07-20T07:57:24;7.18;;;2.50;;
61741;SDS011;47650;49.848;9.620;2023-07-20T07:59:50;5.88;;;2.60;;
61741;SDS011;47650;49.848;9.620;2023-07-20T08:02:15;4.95;;;2.97;;
61741;SDS011;47650;49.848;9.620;2023-07-20T08:04:40;7.25;;;2.70;;
61741;SDS011;47650;49.848;9.620;2023-07-20T08:07:06;6.78;;;3.00;;
61741;SDS011;47650;49.848;9.620;2023-07-20T08:09:31;6.50;;;3.00;;
61741;SDS011;47650;49.848;9.620;2023-07-20T08:11:56;5.28;;;2.22;;
61741;SDS011;47650;49.848;9.620;2023-07-20T08:14:24;7.22;;;2.90;;
61741;SDS011;47650;49.848;9.620;2023-07-20T08:16:50;3.58;;;2.45;;
61741;SDS011;47650;49.848;9.620;2023-07-20T08:19:15;4.40;;;2.53;;
61741;SDS011;47650;49.848;9.620;2023-07-20T08:21:41;4.93;;;2.60;;
61741;SDS011;47650;49.848;9.620;2023-07-20T08:24:06;5.68;;;2.80;;
61741;SDS011;47650;49.848;9.620;2023-07-20T08:26:33;6.53;;;2.40;;
61741;SDS011;47650;49.848;9.620;2023-07-20T08:28:58;8.68;;;2.63;;
61741;SDS011;47650;49.848;9.620;2023-07-20T08:31:24;8.00;;;2.70;;
61741;SDS011;47650;49.848;9.620;2023-07-20T08:33:49;4.00;;;2.30;;
61741;SDS011;47650;49.848;9.620;2023-07-20T08:36:15;7.63;;;2.97;;
61741;SDS011;47650;49.848;9.620;2023-07-20T08:38:40;4.18;;;2.70;;
61741;SDS011;47650;49.848;9.620;2023-07-20T08:41:05;4.95;;;2.13;;
61741;SDS011;47650;49.848;9.620;2023-07-20T08:43:31;6.50;;;2.30;;
61741;SDS011;47650;49.848;9.620;2023-07-20T08:45:58;5.20;;;2.10;;
61741;SDS011;47650;49.848;9.620;2023-07-20T08:48:24;3.28;;;2.03;;
61741;SDS011;47650;49.848;9.620;2023-07-20T08:50:52;5.00;;;2.40;;
61741;SDS011;47650;49.848;9.620;2023-07-20T08:53:19;3.53;;;2.60;;
61741;SDS011;47650;49.848;9.620;2023-07-20T08:55:46;4.00;;;2.08;;
61741;SDS011;47650;49.848;9.620;2023-07-20T08:58:14;4.75;;;2.40;;
61741;SDS011;47650;49.848;9.620;2023-07-20T09:00:40;4.35;;;2.70;;
61741;SDS011;47650;49.848;9.620;2023-07-20T09:03:06;6.60;;;3.22;;
61741;SDS011;47650;49.848;9.620;2023-07-20T09:05:32;4.30;;;2.97;;
61741;SDS011;47650;49.848;9.620;2023-07-20T09:08:00;9.95;;;3.53;;
61741;SDS011;47650;49.848;9.620;2023-07-20T09:10:25;3.33;;;2.80;;
61741;SDS011;47650;49.848;9.620;2023-07-20T09:12:50;3.85;;;3.20;;
61741;SDS011;47650;49.848;9.620;2023-07-20T09:15:16;4.05;;;3.30;;
61741;SDS011;47650;49.848;9.620;2023-07-20T09:17:48;3.58;;;2.20;;
61741;SDS011;47650;49.848;9.620;2023-07-20T09:20:16;5.10;;;3.40;;
61741;SDS011;47650;49.848;9.620;2023-07-20T09:22:43;5.72;;;5.18;;
61741;SDS011;47650;49.848;9.620;2023-07-20T09:25:12;4.35;;;2.25;;
61741;SDS011;47650;49.848;9.620;2023-07-20T09:27:40;5.38;;;2.42;;
61741;SDS011;47650;49.848;9.620;2023-07-20T09:30:10;5.55;;;2.33;;
61741;SDS011;47650;49.848;9.620;2023-07-20T09:32:40;5.68;;;5.13;;
61741;SDS011;47650;49.848;9.620;2023-07-20T09:35:12;4.07;;;3.67;;
61741;SDS011;47650;49.848;9.620;2023-07-20T09:38:01;4.95;;;4.55;;
61741;SDS011;47650;49.848;9.620;2023-07-20T09:40:30;5.97;;;5.05;;
61741;SDS011;47650;49.848;9.620;2023-07-20T09:43:06;5.80;;;5.38;;
61741;SDS011;47650;49.848;9.620;2023-07-20T09:45:33;6.32;;;5.47;;
61741;SDS011;47650;49.848;9.620;2023-07-20T09:48:04;7.72;;;7.18;;
61741;SDS011;47650;49.848;9.620;2023-07-20T09:50:32;3.22;;;1.98;;
61741;SDS011;47650;49.848;9.620;2023-07-20T09:52:58;2.80;;;2.00;;
61741;SDS011;47650;49.848;9.620;2023-07-20T09:55:25;4.82;;;4.43;;
61741;SDS011;47650;49.848;9.620;2023-07-20T09:57:51;5.13;;;4.20;;
61741;SDS011;47650;49.848;9.620;2023-07-20T10:00:18;4.25;;;2.30;;
61741;SDS011;47650;49.848;9.620;2023-07-20T10:02:44;6.22;;;3.88;;
61741;SDS011;47650;49.848;9.620;2023-07-20T10:05:12;5.13;;;2.33;;
61741;SDS011;47650;49.848;9.620;2023-07-20T10:07:48;4.20;;;3.90;;
61741;SDS011;47650;49.848;9.620;2023-07-20T10:10:18;4.00;;;3.47;;
61741;SDS011;47650;49.848;9.620;2023-07-20T10:12:44;4.53;;;3.78;;
61741;SDS011;47650;49.848;9.620;2023-07-20T10:15:18;8.82;;;3.75;;
61741;SDS011;47650;49.848;9.620;2023-07-20T10:17:48;3.83;;;2.75;;
61741;SDS011;47650;49.848;9.620;2023-07-20T10:20:23;3.92;;;3.05;;
61741;SDS011;47650;49.848;9.620;2023-07-20T10:22:50;3.70;;;2.70;;
61741;SDS011;47650;49.848;9.620;2023-07-20T10:25:22;5.47;;;3.22;;
61741;SDS011;47650;49.848;9.620;2023-07-20T10:27:48;3.80;;;3.20;;
61741;SDS011;47650;49.848;9.620;2023-07-20T10:30:14;3.40;;;3.10;;
61741;SDS011;47650;49.848;9.620;2023-07-20T10:32:40;4.22;;;3.10;;
61741;SDS011;47650;49.848;9.620;2023-07-20T10:35:16;4.38;;;2.90;;
61741;SDS011;47650;49.848;9.620;2023-07-20T10:37:46;3.20;;;2.90;;
61741;SDS011;47650;49.848;9.620;2023-07-20T10:40:26;3.75;;;2.53;;
61741;SDS011;47650;49.848;9.620;2023-07-20T10:42:58;2.92;;;2.60;;
61741;SDS011;47650;49.848;9.620;2023-07-20T10:45:35;2.85;;;2.65;;
61741;SDS011;47650;49.848;9.620;2023-07-20T10:48:05;3.42;;;2.85;;
61741;SDS011;47650;49.848;9.620;2023-07-20T10:50:32;3.00;;;2.60;;
61741;SDS011;47650;49.848;9.620;2023-07-20T10:53:09;3.45;;;3.15;;
61741;SDS011;47650;49.848;9.620;2023-07-20T10:55:35;3.20;;;2.90;;
61741;SDS011;47650;49.848;9.620;2023-07-20T10:58:08;4.15;;;2.83;;
61741;SDS011;47650;49.848;9.620;2023-07-20T11:00:34;2.53;;;2.22;;
61741;SDS011;47650;49.848;9.620;2023-07-20T11:03:00;4.10;;;2.17;;
61741;SDS011;47650;49.848;9.620;2023-07-20T11:05:31;4.10;;;2.78;;
61741;SDS011;47650;49.848;9.620;2023-07-20T11:08:04;2.90;;;2.70;;
61741;SDS011;47650;49.848;9.620;2023-07-20T11:10:30;3.17;;;2.90;;
61741;SDS011;47650;49.848;9.620;2023-07-20T11:18:25;2.63;;;1.90;;
61741;SDS011;47650;49.848;9.620;2023-07-20T11:20:50;3.97;;;1.92;;
61741;SDS011;47650;49.848;9.620;2023-07-20T11:23:18;4.70;;;2.60;;
61741;SDS011;47650;49.848;9.620;2023-07-20T11:25:45;4.10;;;2.70;;
61741;SDS011;47650;49.848;9.620;2023-07-20T11:28:10;2.72;;;2.47;;
61741;SDS011;47650;49.848;9.620;2023-07-20T11:30:36;2.85;;;2.20;;
61741;SDS011;47650;49.848;9.620;2023-07-20T11:33:03;2.40;;;2.20;;
61741;SDS011;47650;49.848;9.620;2023-07-20T11:35:30;4.20;;;2.92;;
61741;SDS011;47650;49.848;9.620;2023-07-20T11:37:59;7.70;;;3.45;;
61741;SDS011;47650;49.848;9.620;2023-07-20T11:40:25;6.15;;;2.80;;
61741;SDS011;47650;49.848;9.620;2023-07-20T11:42:50;2.50;;;2.30;;
61741;SDS011;47650;49.848;9.620;2023-07-20T11:45:19;3.42;;;2.30;;
61741;SDS011;47650;49.848;9.620;2023-07-20T11:47:45;3.00;;;2.40;;
61741;SDS011;47650;49.848;9.620;2023-07-20T11:50:11;3.97;;;2.20;;
61741;SDS011;47650;49.848;9.620;2023-07-20T11:52:38;2.50;;;1.90;;
61741;SDS011;47650;49.848;9.620;2023-07-20T11:55:04;2.78;;;2.15;;
61741;SDS011;47650;49.848;9.620;2023-07-20T11:57:31;4.38;;;1.95;;
61741;SDS011;47650;49.848;9.620;2023-07-20T11:59:57;2.17;;;1.63;;
61741;SDS011;47650;49.848;9.620;2023-07-20T12:02:23;2.47;;;1.83;;
61741;SDS011;47650;49.848;9.620;2023-07-20T12:04:52;3.88;;;2.28;;
61741;SDS011;47650;49.848;9.620;2023-07-20T12:07:18;3.63;;;2.25;;
61741;SDS011;47650;49.848;9.620;2023-07-20T12:09:44;5.18;;;2.28;;
61741;SDS011;47650;49.848;9.620;2023-07-20T12:12:11;1.90;;;1.80;;
61741;SDS011;47650;49.848;9.620;2023-07-20T12:14:40;2.35;;;1.88;;
61741;SDS011;47650;49.848;9.620;2023-07-20T12:17:07;2.45;;;1.95;;
61741;SDS011;47650;49.848;9.620;2023-07-20T12:19:37;4.25;;;2.20;;
61741;SDS011;47650;49.848;9.620;2023-07-20T12:22:04;2.10;;;1.50;;
61741;SDS011;47650;49.848;9.620;2023-07-20T12:24:32;2.80;;;1.55;;
61741;SDS011;47650;49.848;9.620;2023-07-20T12:26:57;2.00;;;1.50;;
61741;SDS011;47650;49.848;9.620;2023-07-20T12:29:24;1.83;;;1.73;;
61741;SDS011;47650;49.848;9.620;2023-07-20T12:31:51;2.30;;;1.60;;
61741;SDS011;47650;49.848;9.620;2023-07-20T12:34:16;2.73;;;1.77;;
61741;SDS011;47650;49.848;9.620;2023-07-20T12:36:41;2.35;;;1.60;;
61741;SDS011;47650;49.848;9.620;2023-07-20T12:39:06;1.73;;;1.43;;
61741;SDS011;47650;49.848;9.620;2023-07-20T12:41:32;1.73;;;1.50;;
61741;SDS011;47650;49.848;9.620;2023-07-20T12:43:57;2.80;;;1.77;;
61741;SDS011;47650;49.848;9.620;2023-07-20T12:46:23;2.33;;;1.50;;
61741;SDS011;47650;49.848;9.620;2023-07-20T12:48:48;6.35;;;1.73;;
61741;SDS011;47650;49.848;9.620;2023-07-20T12:51:15;2.35;;;1.52;;
61741;SDS011;47650;49.848;9.620;2023-07-20T12:53:40;3.17;;;1.70;;
61741;SDS011;47650;49.848;9.620;2023-07-20T12:56:06;6.72;;;1.80;;
61741;SDS011;47650;49.848;9.620;2023-07-20T12:58:32;2.28;;;1.52;;
61741;SDS011;47650;49.848;9.620;2023-07-20T13:00:58;4.05;;;1.88;;
61741;SDS011;47650;49.848;9.620;2023-07-20T13:03:23;3.03;;;1.90;;
61741;SDS011;47650;49.848;9.620;2023-07-20T13:05:49;3.33;;;2.03;;
61741;SDS011;47650;49.848;9.620;2023-07-20T13:08:15;2.90;;;1.80;;
61741;SDS011;47650;49.848;9.620;2023-07-20T13:10:42;2.15;;;1.65;;
61741;SDS011;47650;49.848;9.620;2023-07-20T13:13:08;2.42;;;1.83;;
61741;SDS011;47650;49.848;9.620;2023-07-20T13:15:40;3.30;;;2.05;;
61741;SDS011;47650;49.848;9.620;2023-07-20T13:18:07;1.90;;;1.65;;
61741;SDS011;47650;49.848;9.620;2023-07-20T13:20:33;3.28;;;1.70;;
61741;SDS011;47650;49.848;9.620;2023-07-20T13:22:58;2.60;;;1.70;;
61741;SDS011;47650;49.848;9.620;2023-07-20T13:25:24;2.10;;;1.90;;
61741;SDS011;47650;49.848;9.620;2023-07-20T13:27:49;4.72;;;2.13;;
61741;SDS011;47650;49.848;9.620;2023-07-20T13:30:15;3.47;;;1.97;;
61741;SDS011;47650;49.848;9.620;2023-07-20T13:32:44;2.28;;;1.75;;
61741;SDS011;47650;49.848;9.620;2023-07-20T13:35:12;2.85;;;1.77;;
61741;SDS011;47650;49.848;9.620;2023-07-20T13:37:38;6.53;;;2.10;;
61741;SDS011;47650;49.848;9.620;2023-07-20T13:40:03;2.42;;;1.80;;
61741;SDS011;47650;49.848;9.620;2023-07-20T13:42:33;4.05;;;1.70;;
61741;SDS011;47650;49.848;9.620;2023-07-20T13:44:59;4.50;;;1.92;;
61741;SDS011;47650;49.848;9.620;2023-07-20T13:47:25;1.60;;;1.50;;
61741;SDS011;47650;49.848;9.620;2023-07-20T13:49:51;2.38;;;1.73;;
61741;SDS011;47650;49.848;9.620;2023-07-20T13:52:16;2.53;;;1.70;;
61741;SDS011;47650;49.848;9.620;2023-07-20T13:54:42;2.10;;;1.70;;
61741;SDS011;47650;49.848;9.620;2023-07-20T13:57:07;2.77;;;1.73;;
61741;SDS011;47650;49.848;9.620;2023-07-20T13:59:32;3.83;;;1.70;;
61741;SDS011;47650;49.848;9.620;2023-07-20T14:01:57;1.77;;;1.67;;
61741;SDS011;47650;49.848;9.620;2023-07-20T14:04:23;2.77;;;2.00;;
61741;SDS011;47650;49.848;9.620;2023-07-20T14:06:49;2.97;;;1.50;;
61741;SDS011;47650;49.848;9.620;2023-07-20T14:09:14;4.20;;;2.00;;
61741;SDS011;47650;49.848;9.620;2023-07-20T14:11:40;2.75;;;1.63;;
61741;SDS011;47650;49.848;9.620;2023-07-20T14:14:06;2.33;;;1.70;;
61741;SDS011;47650;49.848;9.620;2023-07-20T14:16:31;2.03;;;1.63;;
61741;SDS011;47650;49.848;9.620;2023-07-20T14:18:57;2.15;;;1.63;;
61741;SDS011;47650;49.848;9.620;2023-07-20T14:21:22;3.17;;;1.77;;
61741;SDS011;47650;49.848;9.620;2023-07-20T14:23:49;1.70;;;1.60;;
61741;SDS011;47650;49.848;9.620;2023-07-20T14:26:16;2.30;;;1.55;;
61741;SDS011;47650;49.848;9.620;2023-07-20T14:28:42;2.50;;;1.73;;
61741;SDS011;47650;49.848;9.620;2023-07-20T14:31:07;2.90;;;1.60;;
61741;SDS011;47650;49.848;9.620;2023-07-20T14:33:33;3.67;;;1.70;;
61741;SDS011;47650;49.848;9.620;2023-07-20T14:35:59;2.00;;;1.80;;
61741;SDS011;47650;49.848;9.620;2023-07-20T14:38:27;2.35;;;1.65;;
61741;SDS011;47650;49.848;9.620;2023-07-20T14:40:54;3.80;;;1.50;;
61741;SDS011;47650;49.848;9.620;2023-07-20T14:43:19;3.22;;;1.63;;
61741;SDS011;47650;49.848;9.620;2023-07-20T14:45:46;3.75;;;1.95;;
61741;SDS011;47650;49.848;9.620;2023-07-20T14:48:11;2.58;;;1.73;;